الصفحة الرئيسية
METAR-TAF:

METAR-TAF

مطار :

فوكيت, تايلاند

دائرة عرض: 08-07N, خط طول: 098-19E, ارتفاع: 6 متر

مراقبة الطقس الحالي

تاريخ ووقت الإصدار 25 دقيقة قبل الساعة 22:00UTC
ريح 13 عقدة من الغرب
درجة الحرارة 28°درجة مئوية
الرطوبة 79%
ضغط 1008 hPa
الرؤية 10 كم أو أكثر
غيوم قليلة على ارتفاع 2000 قدم

METAR: VTSP 252200Z 27013KT 9999 FEW020 28/24 Q1008 NOSIG

زمن: 05:25 (22:25 UTC)

توقعات

تاريخ ووقت الإصدار 5ساعات و 25 دقيقة قبل الساعة 17:00UTC
التوقعات صالحة من25 الساعة 18 UTC إلى 26 الساعة 24 UTC
ريح 10 عقدة من الغرب
الرؤية 10 كم أو أكثر
غيوم متفرقة على ارتفاع 2000 قدم

TAF: VTSP 251700Z 2518/2624 27010KT 9999 SCT020

أرصاد الطقس والتوقعات من أكثر من 4000 مطار (تقارير الطقس للمطار METAR والتنبؤ بالطقس بالمطارTAF).

المحطات المتاحة هي النقط الصفراء والحمراء على الخريطة.

حرك المؤشر فوق النقطة لمعرفة اسم المحطة.

ثم انقر لمعرفة أرصاد وتوقعات الطقس.

لتغيير الخارطة: اضغط على الأزرار الخضراء مع رمز الصليب الأسود للتكبير. على الزر الأخضر مع شرطة للتصغير، أو على الأسهم الخضراء للخرائط المجاورة.


METAR-TAF: